createdAt,value
2022-12-31T00:01:29.506Z,31.50
2022-12-31T00:03:56.933Z,32.20
2022-12-31T00:06:28.130Z,33.10
2022-12-31T00:08:56.921Z,30.70
2022-12-31T00:11:25.291Z,32.70
2022-12-31T00:13:52.872Z,32.40
2022-12-31T00:16:24.375Z,34.20
2022-12-31T00:18:55.976Z,34.30
2022-12-31T00:21:22.534Z,34.60
2022-12-31T00:23:49.255Z,33.20
2022-12-31T00:26:20.242Z,32.00
2022-12-31T00:28:48.036Z,30.70
2022-12-31T00:31:17.999Z,30.40
2022-12-31T00:33:45.409Z,37.40
2022-12-31T00:36:15.798Z,38.30
2022-12-31T00:38:45.563Z,38.10
2022-12-31T00:41:13.182Z,37.30
2022-12-31T00:43:39.661Z,36.90
2022-12-31T00:46:06.797Z,35.90
2022-12-31T00:48:34.702Z,50.00
2022-12-31T00:51:03.835Z,34.80
2022-12-31T00:53:30.519Z,29.60
2022-12-31T00:56:14.407Z,30.30
2022-12-31T00:58:40.961Z,29.80
2022-12-31T01:01:12.599Z,31.70
2022-12-31T01:03:39.133Z,32.90
2022-12-31T01:06:06.263Z,33.10
2022-12-31T01:08:32.950Z,33.70
2022-12-31T01:11:20.295Z,34.90
2022-12-31T01:13:52.052Z,38.50
2022-12-31T01:16:22.616Z,35.40
2022-12-31T01:18:50.218Z,34.90
2022-12-31T01:21:17.865Z,37.20
2022-12-31T01:23:44.649Z,36.20
2022-12-31T01:26:13.676Z,37.20
2022-12-31T01:28:40.717Z,38.50
2022-12-31T01:31:10.762Z,38.30
2022-12-31T01:33:38.060Z,40.60
2022-12-31T01:36:08.358Z,46.50
2022-12-31T01:38:35.963Z,47.40
2022-12-31T01:41:03.696Z,55.50
2022-12-31T01:44:08.393Z,51.40
2022-12-31T01:46:41.229Z,49.40
2022-12-31T01:49:18.707Z,45.80
2022-12-31T01:51:50.039Z,41.80
2022-12-31T01:54:20.497Z,38.50
2022-12-31T01:56:49.407Z,37.60
2022-12-31T01:59:18.141Z,36.60
2022-12-31T02:01:47.594Z,37.40
2022-12-31T02:04:15.660Z,35.70
2022-12-31T02:06:50.541Z,36.80
2022-12-31T02:09:19.138Z,35.50
2022-12-31T02:11:45.577Z,37.60
2022-12-31T02:14:16.643Z,42.10
2022-12-31T02:17:05.047Z,40.40
2022-12-31T02:20:00.196Z,41.70
2022-12-31T02:22:57.094Z,45.10
2022-12-31T02:25:51.955Z,44.40
2022-12-31T02:28:57.421Z,44.40
2022-12-31T02:31:32.234Z,43.90
2022-12-31T02:34:36.692Z,44.90
2022-12-31T02:37:09.052Z,45.50
2022-12-31T02:39:36.607Z,45.80
2022-12-31T02:42:03.308Z,46.90
2022-12-31T02:44:33.701Z,48.20
2022-12-31T02:47:26.220Z,50.50
2022-12-31T02:50:28.852Z,49.10
2022-12-31T02:53:18.908Z,35.00
2022-12-31T02:55:57.125Z,38.90
2022-12-31T02:59:09.127Z,37.90
2022-12-31T03:01:59.461Z,39.20
2022-12-31T03:04:35.531Z,35.90
2022-12-31T03:07:08.175Z,33.80
2022-12-31T03:09:36.019Z,27.70
2022-12-31T03:12:20.020Z,29.00
2022-12-31T03:14:46.977Z,30.70
2022-12-31T03:17:13.838Z,29.20
2022-12-31T03:20:00.485Z,31.30
2022-12-31T03:22:27.340Z,33.00
2022-12-31T03:25:30.790Z,32.30
2022-12-31T03:27:58.214Z,30.20
2022-12-31T03:30:25.373Z,30.80
2022-12-31T03:32:52.666Z,29.60
2022-12-31T03:35:20.626Z,30.90
2022-12-31T03:37:48.010Z,28.80
2022-12-31T03:40:16.160Z,25.70
2022-12-31T03:42:42.517Z,28.80
2022-12-31T03:45:10.218Z,32.10
2022-12-31T03:47:36.805Z,34.80
2022-12-31T03:50:05.231Z,32.70
2022-12-31T03:52:31.740Z,36.40
2022-12-31T03:54:58.169Z,36.00
2022-12-31T03:57:24.882Z,34.50
2022-12-31T03:59:51.375Z,36.30
2022-12-31T04:02:20.871Z,36.80
2022-12-31T04:04:49.685Z,36.60
2022-12-31T04:07:16.340Z,39.50
2022-12-31T04:09:43.090Z,37.90
2022-12-31T04:12:09.531Z,38.20
2022-12-31T04:14:36.009Z,37.90
2022-12-31T04:17:02.648Z,37.00
2022-12-31T04:19:29.156Z,39.50
2022-12-31T04:21:55.602Z,37.50
2022-12-31T04:24:22.279Z,39.60
2022-12-31T04:26:49.213Z,39.20
2022-12-31T04:29:15.628Z,35.80
2022-12-31T04:31:42.156Z,32.30
2022-12-31T04:34:08.869Z,32.20
2022-12-31T04:36:35.309Z,32.40
2022-12-31T04:39:01.756Z,31.60
2022-12-31T04:41:28.285Z,32.30
2022-12-31T04:43:57.895Z,31.90
2022-12-31T04:46:27.083Z,30.60
2022-12-31T04:48:54.035Z,31.30
2022-12-31T04:51:21.193Z,30.60
2022-12-31T04:53:48.726Z,31.70
2022-12-31T04:56:16.062Z,28.40
2022-12-31T04:58:44.325Z,30.20
2022-12-31T05:01:12.183Z,30.90
2022-12-31T05:03:39.323Z,30.60
2022-12-31T05:06:10.133Z,27.60
2022-12-31T05:08:36.751Z,34.00
2022-12-31T05:11:03.437Z,32.90
2022-12-31T05:13:33.337Z,32.30
2022-12-31T05:16:01.519Z,32.10
2022-12-31T05:18:29.075Z,34.80
2022-12-31T05:20:55.858Z,32.70
2022-12-31T05:23:23.714Z,36.60
2022-12-31T05:25:50.812Z,40.30
2022-12-31T05:28:17.969Z,36.70
2022-12-31T05:30:47.104Z,34.80
2022-12-31T05:33:13.582Z,36.60
2022-12-31T05:35:40.007Z,36.40
2022-12-31T05:38:07.214Z,38.00
2022-12-31T05:40:33.692Z,38.30
2022-12-31T05:43:00.049Z,36.80
2022-12-31T05:45:30.789Z,36.00
2022-12-31T05:47:57.740Z,35.50
2022-12-31T05:50:24.600Z,33.10
2022-12-31T05:52:55.125Z,33.20
2022-12-31T05:55:22.291Z,31.30
2022-12-31T05:57:48.671Z,32.90
2022-12-31T06:00:15.553Z,32.30
2022-12-31T06:02:42.152Z,31.40
2022-12-31T06:05:09.639Z,31.80
2022-12-31T06:07:36.190Z,30.70
2022-12-31T06:10:04.795Z,30.10
2022-12-31T06:12:31.236Z,30.40
2022-12-31T06:14:57.754Z,32.50
2022-12-31T06:17:24.276Z,35.30
2022-12-31T06:19:50.728Z,39.20
2022-12-31T06:22:17.226Z,38.90
2022-12-31T06:24:43.691Z,37.20
2022-12-31T06:27:10.276Z,38.80
2022-12-31T06:29:36.823Z,35.40
2022-12-31T06:32:03.441Z,39.40
2022-12-31T06:34:29.836Z,37.80
2022-12-31T06:36:56.268Z,37.70
2022-12-31T06:39:22.830Z,38.30
2022-12-31T06:41:49.325Z,38.30
2022-12-31T06:44:15.929Z,38.60
2022-12-31T06:46:42.404Z,40.00
2022-12-31T06:49:09.047Z,40.60
2022-12-31T06:51:35.564Z,40.00
2022-12-31T06:54:01.908Z,39.80
2022-12-31T06:56:34.322Z,37.80
2022-12-31T06:59:02.363Z,35.30
2022-12-31T07:02:00.858Z,36.20
2022-12-31T07:05:03.715Z,34.50
2022-12-31T07:07:47.731Z,33.00
2022-12-31T07:10:39.465Z,33.80
2022-12-31T07:13:27.600Z,33.10
2022-12-31T07:16:09.561Z,33.20
2022-12-31T07:18:54.517Z,32.80
2022-12-31T07:21:32.870Z,33.30
2022-12-31T07:23:59.663Z,34.80
2022-12-31T07:26:56.757Z,36.40
2022-12-31T07:32:22.239Z,39.10
2022-12-31T07:35:06.207Z,39.70
2022-12-31T07:37:46.733Z,40.20
2022-12-31T07:40:24.086Z,38.50
2022-12-31T07:43:09.978Z,38.20
2022-12-31T07:45:47.295Z,38.80
2022-12-31T07:48:22.441Z,40.30
2022-12-31T07:50:50.726Z,41.50
2022-12-31T07:53:17.497Z,42.10
2022-12-31T07:55:43.994Z,44.30
2022-12-31T07:58:20.787Z,42.40
2022-12-31T08:00:47.942Z,42.20
2022-12-31T08:03:35.141Z,42.50
2022-12-31T08:08:53.166Z,40.20
2022-12-31T08:11:31.213Z,42.70
2022-12-31T08:14:01.019Z,42.00
2022-12-31T08:16:29.044Z,39.90
2022-12-31T08:18:55.974Z,44.40
2022-12-31T08:21:43.100Z,41.60
2022-12-31T08:24:38.741Z,40.50
2022-12-31T08:27:20.308Z,39.80
2022-12-31T08:30:16.467Z,39.40
2022-12-31T08:33:09.306Z,42.30
2022-12-31T08:36:09.302Z,39.60
2022-12-31T08:38:55.881Z,38.90
2022-12-31T08:41:29.476Z,38.50
2022-12-31T08:44:16.374Z,39.00
2022-12-31T08:46:56.391Z,58.30
2022-12-31T08:49:26.746Z,51.00
2022-12-31T08:51:53.712Z,44.20
2022-12-31T08:54:20.788Z,41.50
2022-12-31T08:57:10.118Z,41.40
2022-12-31T08:59:54.946Z,42.00
2022-12-31T09:02:43.215Z,39.20
2022-12-31T09:05:44.952Z,40.90
2022-12-31T09:08:29.779Z,40.70
2022-12-31T09:11:09.759Z,40.50
2022-12-31T09:14:01.680Z,39.20
2022-12-31T09:16:48.011Z,42.40
2022-12-31T09:19:16.954Z,40.70
2022-12-31T09:21:44.507Z,40.00
2022-12-31T09:24:15.927Z,39.80
2022-12-31T09:27:02.503Z,39.10
2022-12-31T09:30:03.308Z,39.80
2022-12-31T09:32:49.336Z,40.30
2022-12-31T09:35:34.802Z,43.90
2022-12-31T09:38:23.064Z,43.10
2022-12-31T09:41:05.722Z,43.60
2022-12-31T09:44:04.402Z,40.70
2022-12-31T09:47:03.597Z,40.20
2022-12-31T09:49:52.306Z,39.80
2022-12-31T09:52:33.106Z,39.50
2022-12-31T09:55:33.768Z,40.10
2022-12-31T09:58:34.328Z,40.90
2022-12-31T10:01:23.986Z,39.10
2022-12-31T10:04:24.693Z,36.20
2022-12-31T10:07:10.038Z,35.60
2022-12-31T10:10:02.031Z,35.70
2022-12-31T10:13:01.128Z,38.10
2022-12-31T10:16:05.459Z,38.10
2022-12-31T10:18:51.591Z,35.50
2022-12-31T10:21:36.001Z,36.80
2022-12-31T10:24:28.474Z,37.40
2022-12-31T10:27:13.459Z,37.30
2022-12-31T10:29:57.446Z,36.10
2022-12-31T10:32:50.338Z,37.30
2022-12-31T10:35:53.110Z,37.70
2022-12-31T10:38:32.075Z,38.60
2022-12-31T10:41:30.491Z,38.30
2022-12-31T10:44:26.636Z,39.80
2022-12-31T10:47:20.968Z,40.50
2022-12-31T10:50:17.716Z,38.80
2022-12-31T10:53:17.554Z,41.50
2022-12-31T10:56:20.133Z,40.10
2022-12-31T10:59:17.961Z,40.60
2022-12-31T11:01:58.487Z,43.10
2022-12-31T11:04:51.984Z,42.00
2022-12-31T11:07:48.510Z,40.80
2022-12-31T11:10:42.083Z,41.90
2022-12-31T11:13:38.854Z,42.00
2022-12-31T11:16:30.937Z,39.60
2022-12-31T11:19:13.866Z,38.90
2022-12-31T11:22:08.812Z,40.90
2022-12-31T11:25:01.184Z,41.10
2022-12-31T11:27:59.729Z,38.90
2022-12-31T11:31:05.826Z,38.10
2022-12-31T11:34:00.331Z,38.10
2022-12-31T11:36:59.336Z,37.10
2022-12-31T11:39:53.468Z,37.60
2022-12-31T11:42:32.037Z,36.90
2022-12-31T11:45:14.161Z,38.90
2022-12-31T11:48:29.797Z,38.30
2022-12-31T11:51:09.654Z,39.10
2022-12-31T11:54:00.745Z,39.30
2022-12-31T11:56:39.804Z,39.70
2022-12-31T11:59:19.062Z,37.50
2022-12-31T12:01:58.935Z,40.10
2022-12-31T12:04:25.755Z,39.40
2022-12-31T12:06:52.784Z,41.00
2022-12-31T12:09:27.931Z,40.60
2022-12-31T12:12:04.711Z,40.40
2022-12-31T12:14:35.937Z,43.50
2022-12-31T12:17:07.411Z,41.90
2022-12-31T12:19:40.666Z,46.20
2022-12-31T12:22:22.232Z,44.70
2022-12-31T12:25:07.210Z,44.80
2022-12-31T12:27:36.386Z,44.20
2022-12-31T12:30:17.215Z,43.40
2022-12-31T12:32:53.404Z,44.60
2022-12-31T12:35:26.213Z,43.40
2022-12-31T12:38:03.798Z,42.00
2022-12-31T12:40:34.308Z,44.90
2022-12-31T12:43:02.887Z,44.90
2022-12-31T12:45:52.361Z,43.30
2022-12-31T12:48:30.407Z,42.20
2022-12-31T12:50:57.110Z,39.20
2022-12-31T12:53:45.137Z,37.60
2022-12-31T12:56:26.832Z,38.50
2022-12-31T12:59:26.991Z,35.50
2022-12-31T13:02:15.947Z,34.50
2022-12-31T13:05:08.926Z,34.40
2022-12-31T13:07:52.069Z,33.40
2022-12-31T13:10:46.093Z,34.90
2022-12-31T13:13:33.217Z,36.10
2022-12-31T13:16:17.983Z,35.90
2022-12-31T13:19:01.677Z,35.20
2022-12-31T13:21:43.638Z,35.00
2022-12-31T13:24:46.304Z,34.80
2022-12-31T13:27:26.451Z,35.30
2022-12-31T13:29:58.478Z,33.50
2022-12-31T13:32:41.643Z,34.50
2022-12-31T13:35:26.417Z,34.10
2022-12-31T13:38:05.301Z,33.20
2022-12-31T13:40:45.964Z,33.90
2022-12-31T13:43:25.033Z,33.40
2022-12-31T13:46:03.753Z,33.40
2022-12-31T13:48:39.865Z,34.20
2022-12-31T13:51:17.461Z,33.20
2022-12-31T13:53:56.057Z,31.60
2022-12-31T13:56:26.863Z,33.30
2022-12-31T13:59:02.895Z,32.10
2022-12-31T14:01:43.161Z,30.70
2022-12-31T14:04:16.815Z,31.70
2022-12-31T14:07:12.140Z,32.60
2022-12-31T14:09:38.793Z,32.10
2022-12-31T14:12:20.685Z,33.30
2022-12-31T14:15:13.836Z,33.10
2022-12-31T14:17:49.891Z,35.70
2022-12-31T14:20:33.017Z,34.80
2022-12-31T14:23:17.693Z,36.50
2022-12-31T14:25:50.694Z,32.90
2022-12-31T14:28:23.287Z,33.10
2022-12-31T14:30:57.447Z,33.80
2022-12-31T14:33:37.190Z,33.10
2022-12-31T14:36:19.161Z,31.80
2022-12-31T14:39:25.403Z,31.20
2022-12-31T14:42:10.556Z,30.80
2022-12-31T14:45:02.229Z,31.50
2022-12-31T14:47:43.597Z,30.60
2022-12-31T14:50:15.190Z,31.60
2022-12-31T14:52:52.928Z,32.20
2022-12-31T14:55:25.912Z,32.40
2022-12-31T14:58:26.324Z,31.30
2022-12-31T15:00:50.695Z,31.20
2022-12-31T15:03:25.282Z,31.90
2022-12-31T15:06:14.407Z,31.60
2022-12-31T15:09:07.610Z,32.70
2022-12-31T15:11:45.538Z,33.30
2022-12-31T15:14:37.831Z,32.10
2022-12-31T15:17:34.341Z,35.10
2022-12-31T15:20:34.730Z,31.20
2022-12-31T15:23:01.634Z,31.00
2022-12-31T15:25:41.373Z,32.00
2022-12-31T15:28:29.155Z,32.20
2022-12-31T15:31:04.172Z,31.00
2022-12-31T15:33:38.596Z,31.20
2022-12-31T15:36:16.339Z,31.40
2022-12-31T15:38:43.846Z,30.80
2022-12-31T15:41:25.838Z,30.60
2022-12-31T15:44:06.871Z,30.50
2022-12-31T15:46:41.375Z,33.50
2022-12-31T15:49:16.277Z,30.80
2022-12-31T15:51:47.772Z,29.80
2022-12-31T15:54:34.367Z,27.70
2022-12-31T15:57:07.187Z,28.60
2022-12-31T15:59:37.471Z,27.30
2022-12-31T16:02:04.178Z,30.10
2022-12-31T16:04:33.994Z,28.70
2022-12-31T16:07:03.492Z,29.70
2022-12-31T16:09:35.381Z,25.30
2022-12-31T16:12:09.480Z,26.80
2022-12-31T16:14:39.892Z,26.10
2022-12-31T16:17:21.253Z,26.00
2022-12-31T16:19:47.690Z,25.40
2022-12-31T16:22:17.470Z,23.50
2022-12-31T16:25:19.465Z,21.60
2022-12-31T16:27:33.683Z,21.70
2022-12-31T16:30:06.506Z,22.70
2022-12-31T16:32:37.377Z,21.80
2022-12-31T16:35:23.861Z,25.10
2022-12-31T16:38:10.426Z,24.20
2022-12-31T16:43:23.398Z,25.20
2022-12-31T16:45:50.251Z,26.10
2022-12-31T16:48:19.562Z,26.50
2022-12-31T16:50:49.871Z,26.60
2022-12-31T16:53:23.204Z,26.30
2022-12-31T16:55:55.192Z,28.20
2022-12-31T16:58:30.027Z,26.80
2022-12-31T17:01:11.193Z,27.10
2022-12-31T17:03:41.437Z,26.20
2022-12-31T17:06:15.596Z,28.10
2022-12-31T17:08:49.891Z,29.40
2022-12-31T17:11:23.755Z,25.30
2022-12-31T17:13:55.375Z,27.00
2022-12-31T17:16:22.907Z,27.80
2022-12-31T17:18:50.419Z,24.10
2022-12-31T17:21:18.018Z,24.50
2022-12-31T17:23:52.945Z,23.70
2022-12-31T17:26:26.070Z,23.50
2022-12-31T17:28:54.959Z,25.80
2022-12-31T17:31:32.759Z,24.30
2022-12-31T17:34:20.348Z,28.40
2022-12-31T17:36:59.554Z,27.30
2022-12-31T17:39:38.642Z,27.50
2022-12-31T17:42:07.149Z,27.80
2022-12-31T17:44:37.740Z,28.40
2022-12-31T17:47:04.436Z,26.90
2022-12-31T17:49:31.433Z,27.10
2022-12-31T17:51:58.023Z,26.20
2022-12-31T17:54:24.532Z,26.90
2022-12-31T17:56:52.100Z,28.40
2022-12-31T17:59:28.920Z,28.30
2022-12-31T18:02:00.564Z,29.10
2022-12-31T18:04:27.141Z,30.20
2022-12-31T18:06:53.548Z,34.00
2022-12-31T18:09:20.242Z,34.40
2022-12-31T18:11:46.944Z,34.00
2022-12-31T18:14:15.533Z,31.70
2022-12-31T18:16:42.040Z,31.90
2022-12-31T18:19:23.634Z,30.90
2022-12-31T18:22:00.084Z,30.60
2022-12-31T18:24:26.615Z,29.40
2022-12-31T18:26:53.434Z,29.60
2022-12-31T18:29:20.292Z,27.70
2022-12-31T18:32:04.781Z,28.10
2022-12-31T18:34:31.484Z,26.20
2022-12-31T18:36:58.750Z,26.10
2022-12-31T18:39:25.181Z,24.40
2022-12-31T18:41:51.721Z,23.00
2022-12-31T18:44:18.164Z,24.30
2022-12-31T18:46:44.627Z,27.10
2022-12-31T18:49:11.277Z,27.10
2022-12-31T18:51:37.736Z,25.00
2022-12-31T18:54:04.566Z,25.00
2022-12-31T18:56:31.424Z,25.70
2022-12-31T18:58:59.028Z,24.10
2022-12-31T19:01:33.441Z,22.00
2022-12-31T19:04:03.207Z,22.90
2022-12-31T19:06:29.956Z,22.40
2022-12-31T19:08:56.468Z,22.60
2022-12-31T19:11:23.417Z,24.50
2022-12-31T19:13:49.946Z,25.00
2022-12-31T19:16:17.296Z,26.40
2022-12-31T19:18:45.465Z,28.30
2022-12-31T19:21:21.898Z,27.00
2022-12-31T19:23:49.862Z,27.60
2022-12-31T19:26:19.253Z,26.90
2022-12-31T19:28:46.829Z,27.70
2022-12-31T19:31:13.619Z,30.70
2022-12-31T19:33:41.341Z,31.50
2022-12-31T19:36:15.423Z,31.00
2022-12-31T19:38:42.752Z,31.70
2022-12-31T19:41:15.342Z,28.40
2022-12-31T19:43:41.950Z,30.40
2022-12-31T19:46:13.005Z,28.80
2022-12-31T19:48:39.648Z,30.00
2022-12-31T19:51:09.778Z,29.50
2022-12-31T19:53:36.327Z,29.70
2022-12-31T19:56:03.516Z,28.90
2022-12-31T19:58:31.260Z,26.80
2022-12-31T20:01:02.949Z,27.50
2022-12-31T20:03:31.923Z,27.50
2022-12-31T20:06:01.821Z,28.40
2022-12-31T20:08:28.382Z,28.30
2022-12-31T20:10:58.077Z,28.40
2022-12-31T20:13:26.259Z,27.20
2022-12-31T20:15:53.591Z,27.20
2022-12-31T20:18:22.213Z,26.80
2022-12-31T20:20:55.372Z,25.60
2022-12-31T20:23:22.381Z,26.30
2022-12-31T20:26:04.159Z,28.00
2022-12-31T20:28:30.766Z,28.90
2022-12-31T20:30:57.391Z,29.00
2022-12-31T20:33:23.948Z,30.90
2022-12-31T20:35:50.777Z,31.70
2022-12-31T20:38:17.277Z,30.90
2022-12-31T20:40:46.973Z,31.70
2022-12-31T20:43:13.800Z,31.30
2022-12-31T20:45:41.278Z,31.70
2022-12-31T20:48:07.922Z,32.20
2022-12-31T20:50:34.633Z,32.50
2022-12-31T20:53:01.397Z,31.90
2022-12-31T20:55:30.099Z,33.60
2022-12-31T20:57:56.672Z,35.50
2022-12-31T21:00:23.237Z,34.40
2022-12-31T21:02:59.005Z,36.70
2022-12-31T21:05:34.030Z,37.10
2022-12-31T21:08:00.743Z,33.10
2022-12-31T21:10:27.187Z,31.00
2022-12-31T21:12:53.717Z,31.90
2022-12-31T21:15:20.885Z,29.80
2022-12-31T21:17:47.504Z,29.10
2022-12-31T21:20:14.048Z,29.80
2022-12-31T21:22:40.529Z,27.60
2022-12-31T21:25:07.367Z,29.20
2022-12-31T21:27:35.230Z,27.50
2022-12-31T21:30:18.128Z,27.70
2022-12-31T21:32:45.882Z,25.80
2022-12-31T21:35:41.576Z,27.20
2022-12-31T21:38:01.049Z,27.40
2022-12-31T21:40:28.886Z,27.80
2022-12-31T21:42:55.384Z,28.20
2022-12-31T21:45:22.261Z,31.00
2022-12-31T21:47:59.777Z,30.50
2022-12-31T21:50:26.428Z,32.10
2022-12-31T21:52:52.833Z,35.70
2022-12-31T21:55:30.312Z,40.20
2022-12-31T21:58:25.426Z,43.90
2022-12-31T22:01:00.699Z,46.70
2022-12-31T22:03:28.044Z,54.60
2022-12-31T22:06:02.307Z,80.20
2022-12-31T22:08:30.202Z,73.50
2022-12-31T22:10:57.071Z,98.60
2022-12-31T22:13:23.683Z,100.10
2022-12-31T22:15:58.754Z,93.80
2022-12-31T22:18:29.303Z,75.00
2022-12-31T22:21:05.622Z,67.80
2022-12-31T22:23:33.476Z,58.90
2022-12-31T22:26:01.144Z,51.00
2022-12-31T22:28:38.073Z,44.20
2022-12-31T22:31:16.703Z,40.30
2022-12-31T22:33:44.059Z,37.10
2022-12-31T22:36:14.462Z,39.00
2022-12-31T22:38:44.971Z,34.20
2022-12-31T22:41:17.528Z,31.20
2022-12-31T22:43:51.748Z,30.80
2022-12-31T22:46:21.930Z,31.90
2022-12-31T22:48:49.133Z,32.80
2022-12-31T22:51:17.310Z,33.30
2022-12-31T22:53:44.148Z,33.00
2022-12-31T22:56:13.852Z,32.60
2022-12-31T22:58:40.700Z,34.80
2022-12-31T23:01:15.048Z,35.20
2022-12-31T23:03:41.826Z,32.40
2022-12-31T23:06:08.488Z,34.90
2022-12-31T23:08:34.959Z,34.60
2022-12-31T23:11:05.067Z,30.70
2022-12-31T23:13:55.250Z,30.80
2022-12-31T23:16:35.568Z,31.00
2022-12-31T23:19:15.583Z,30.60
2022-12-31T23:21:55.783Z,31.90
2022-12-31T23:24:26.705Z,31.50
2022-12-31T23:26:56.467Z,51.90
2022-12-31T23:29:24.612Z,49.70
2022-12-31T23:31:52.238Z,42.30
2022-12-31T23:34:18.896Z,40.00
2022-12-31T23:36:45.274Z,33.80
2022-12-31T23:39:12.733Z,32.80
2022-12-31T23:41:39.661Z,30.60
2022-12-31T23:44:06.288Z,28.60
2022-12-31T23:46:32.905Z,28.50
2022-12-31T23:48:59.457Z,29.40
2022-12-31T23:51:25.932Z,35.90
2022-12-31T23:53:52.341Z,37.40
2022-12-31T23:56:23.650Z,37.30
2022-12-31T23:58:55.241Z,36.80
